Time;durP1;ratioP1;P1;durP2;ratioP2;P2;SDS_P1;SDS_P2;PMS_P1;PMS_P2;Temp;Humidity;BMP_temperature;BMP_pressure;BME280_temperature;BME280_humidity;BME280_pressure;Samples;Min_cycle;Max_cycle;Signal;HPM_P1;HPM_P2
2021/10/27 00:00:48;;;;;;;14.27;8.00;;;13.90;89.60;;;;;;5078112;28;20081;-80
2021/10/27 00:03:13;;;;;;;11.82;8.35;;;13.90;89.60;;;;;;5078516;28;20085;-79
2021/10/27 00:05:39;;;;;;;14.45;9.13;;;13.90;89.60;;;;;;5061749;28;20044;-79
2021/10/27 00:08:05;;;;;;;12.35;8.98;;;13.90;89.60;;;;;;5072849;28;20123;-79
2021/10/27 00:10:31;;;;;;;14.18;8.75;;;13.90;89.70;;;;;;5077473;28;20402;-79
2021/10/27 00:12:56;;;;;;;10.60;8.15;;;13.90;89.80;;;;;;5077925;28;20059;-79
2021/10/27 00:15:22;;;;;;;11.63;8.55;;;13.80;89.80;;;;;;5074131;28;20488;-79
2021/10/27 00:17:48;;;;;;;11.90;8.55;;;13.90;89.90;;;;;;5057559;28;20020;-79
2021/10/27 00:20:14;;;;;;;11.75;7.80;;;13.90;89.90;;;;;;5057890;28;20762;-80
2021/10/27 00:22:41;;;;;;;10.80;8.02;;;13.90;89.90;;;;;;5057575;28;20101;-79
2021/10/27 00:25:08;;;;;;;11.20;7.70;;;13.90;89.90;;;;;;5057517;28;20036;-79
2021/10/27 00:27:34;;;;;;;9.13;8.07;;;13.90;89.90;;;;;;5092018;28;20024;-80
2021/10/27 00:30:00;;;;;;;13.65;8.43;;;13.90;89.90;;;;;;5074613;28;20132;-79
2021/10/27 00:32:26;;;;;;;12.68;8.52;;;13.80;89.90;;;;;;5075580;28;20036;-80
2021/10/27 00:34:52;;;;;;;10.38;7.78;;;13.80;90.00;;;;;;5094009;28;20035;-79
2021/10/27 00:37:18;;;;;;;8.93;7.45;;;13.90;90.00;;;;;;5062541;28;20531;-80
2021/10/27 00:39:46;;;;;;;10.27;7.65;;;13.90;89.90;;;;;;5076805;28;20062;-80
2021/10/27 00:42:12;;;;;;;13.25;7.75;;;13.90;90.10;;;;;;5077906;28;20038;-80
2021/10/27 00:44:37;;;;;;;14.25;8.05;;;13.90;89.90;;;;;;5091609;28;20035;-80
2021/10/27 00:47:05;;;;;;;11.93;8.23;;;13.90;90.00;;;;;;5060737;28;20080;-79
2021/10/27 00:49:33;;;;;;;10.32;7.60;;;13.80;90.00;;;;;;5076466;28;20053;-82
2021/10/27 00:52:00;;;;;;;10.82;8.00;;;13.80;90.00;;;;;;5077369;28;20118;-80
2021/10/27 00:54:27;;;;;;;11.85;6.90;;;13.90;90.00;;;;;;5094426;28;20131;-79
2021/10/27 00:56:54;;;;;;;12.73;7.60;;;13.90;90.00;;;;;;5111793;28;20147;-80
2021/10/27 00:59:21;;;;;;;10.43;7.38;;;13.90;90.00;;;;;;5093202;28;20019;-80
2021/10/27 01:01:47;;;;;;;11.65;7.30;;;13.90;90.00;;;;;;5111014;28;20027;-80
2021/10/27 01:04:13;;;;;;;10.45;7.80;;;13.90;90.00;;;;;;5093730;28;20035;-80
2021/10/27 01:06:39;;;;;;;12.45;7.10;;;13.80;90.00;;;;;;5103180;28;20036;-81
2021/10/27 01:09:05;;;;;;;9.13;7.10;;;13.90;90.00;;;;;;5090789;28;20109;-79
2021/10/27 01:11:31;;;;;;;10.43;6.78;;;13.90;90.00;;;;;;5084616;28;20055;-79
2021/10/27 01:13:57;;;;;;;11.98;7.07;;;13.90;90.00;;;;;;5092839;28;20038;-79
2021/10/27 01:16:23;;;;;;;12.65;6.90;;;13.90;90.00;;;;;;5093774;28;20052;-80
2021/10/27 01:18:53;;;;;;;11.88;7.28;;;13.90;90.00;;;;;;5093206;28;20036;-79
2021/10/27 01:21:21;;;;;;;9.82;6.57;;;13.90;90.00;;;;;;5077544;28;20051;-79
2021/10/27 01:23:47;;;;;;;13.85;7.60;;;13.90;90.00;;;;;;5109617;28;20028;-79
2021/10/27 01:26:12;;;;;;;11.05;6.93;;;14.00;90.00;;;;;;5077161;28;20096;-79
2021/10/27 01:28:43;;;;;;;9.18;6.07;;;14.00;90.00;;;;;;5077353;28;20019;-81
2021/10/27 01:31:11;;;;;;;9.68;6.38;;;14.00;90.00;;;;;;5094051;28;20106;-81
2021/10/27 01:33:37;;;;;;;14.63;6.63;;;14.00;89.90;;;;;;5078279;28;20077;-80
2021/10/27 01:36:04;;;;;;;10.57;6.85;;;14.00;89.90;;;;;;5073585;28;20123;-80
2021/10/27 01:38:31;;;;;;;7.95;6.38;;;14.00;89.90;;;;;;5057810;28;20347;-81
2021/10/27 01:40:57;;;;;;;9.82;6.03;;;14.00;90.00;;;;;;5041298;28;20506;-81
2021/10/27 01:43:22;;;;;;;11.70;6.97;;;14.00;90.00;;;;;;5074250;28;20060;-81
2021/10/27 01:45:48;;;;;;;10.55;6.53;;;14.00;90.00;;;;;;5056951;28;20032;-81
2021/10/27 01:48:14;;;;;;;11.32;6.53;;;14.00;90.00;;;;;;5057381;28;20020;-79
2021/10/27 01:50:41;;;;;;;9.10;6.25;;;14.00;90.00;;;;;;5057504;28;20387;-79
2021/10/27 01:53:07;;;;;;;11.25;5.72;;;14.00;90.00;;;;;;5073589;28;20027;-80
2021/10/27 01:55:33;;;;;;;10.50;6.38;;;14.00;89.90;;;;;;5091610;28;20028;-79
2021/10/27 01:57:58;;;;;;;9.55;5.85;;;14.00;89.90;;;;;;5074970;28;20464;-81
2021/10/27 02:00:24;;;;;;;10.38;6.30;;;14.00;89.90;;;;;;5088366;28;20112;-80
2021/10/27 02:02:50;;;;;;;9.05;5.82;;;14.10;89.90;;;;;;5073730;28;20043;-81
2021/10/27 02:05:16;;;;;;;12.77;6.20;;;14.10;89.90;;;;;;5057964;28;20115;-80
2021/10/27 02:07:42;;;;;;;8.77;5.45;;;14.10;89.80;;;;;;5086538;28;20558;-81
2021/10/27 02:10:11;;;;;;;11.32;5.75;;;14.10;89.80;;;;;;5113163;28;20026;-80
2021/10/27 02:12:38;;;;;;;10.43;5.78;;;14.10;89.80;;;;;;5058322;28;20032;-80
2021/10/27 02:15:05;;;;;;;10.70;6.28;;;14.00;89.80;;;;;;5093217;28;20136;-80
2021/10/27 02:17:31;;;;;;;10.38;6.30;;;14.10;89.80;;;;;;5058654;28;20036;-80
2021/10/27 02:19:57;;;;;;;10.68;5.65;;;14.10;89.80;;;;;;5073697;28;20032;-82
2021/10/27 02:22:23;;;;;;;10.07;5.90;;;14.10;89.80;;;;;;5092524;28;20033;-80
2021/10/27 02:24:48;;;;;;;8.65;5.68;;;14.10;89.70;;;;;;5072882;28;20118;-82
2021/10/27 02:27:15;;;;;;;8.98;5.22;;;14.10;89.70;;;;;;5056614;28;20032;-81
2021/10/27 02:29:40;;;;;;;11.80;5.90;;;14.00;89.60;;;;;;5073232;28;20487;-80
2021/10/27 02:32:07;;;;;;;10.52;6.45;;;14.10;89.70;;;;;;5077206;28;20036;-80
2021/10/27 02:34:34;;;;;;;9.57;5.10;;;14.10;89.70;;;;;;5093760;28;20042;-81
2021/10/27 02:37:00;;;;;;;11.77;6.50;;;14.10;89.60;;;;;;5095203;28;20056;-80
2021/10/27 02:39:26;;;;;;;12.20;6.60;;;14.00;89.60;;;;;;5073827;28;20089;-80
2021/10/27 02:41:52;;;;;;;12.23;6.25;;;14.00;89.70;;;;;;5072731;28;20400;-81
2021/10/27 02:44:18;;;;;;;8.73;5.35;;;14.10;89.80;;;;;;5076603;28;20062;-81
2021/10/27 02:46:45;;;;;;;8.73;5.88;;;14.00;89.70;;;;;;5093422;28;20036;-80
2021/10/27 02:49:12;;;;;;;10.98;5.75;;;14.00;90.10;;;;;;5082160;28;20272;-81
2021/10/27 02:51:37;;;;;;;13.02;5.97;;;14.00;89.80;;;;;;5064044;28;20050;-81
2021/10/27 02:54:03;;;;;;;11.93;5.63;;;14.00;89.80;;;;;;5072017;28;20036;-81
2021/10/27 02:56:29;;;;;;;10.93;5.82;;;14.00;89.80;;;;;;5072662;28;20032;-79
2021/10/27 02:58:55;;;;;;;7.25;5.10;;;14.00;89.80;;;;;;5072229;28;20434;-83
2021/10/27 03:01:21;;;;;;;9.02;5.15;;;14.00;89.80;;;;;;5068870;28;20028;-80
2021/10/27 03:03:46;;;;;;;8.82;5.07;;;14.00;89.80;;;;;;5092348;28;20429;-81
2021/10/27 03:06:12;;;;;;;8.48;5.43;;;14.00;89.80;;;;;;5086384;28;20047;-81
2021/10/27 03:08:38;;;;;;;13.40;6.85;;;14.00;89.80;;;;;;5096966;28;20081;-79
2021/10/27 03:11:04;;;;;;;10.00;5.80;;;14.00;89.80;;;;;;5095474;28;20100;-81
2021/10/27 03:13:30;;;;;;;8.23;5.07;;;14.00;89.90;;;;;;5080054;28;20027;-80
2021/10/27 03:15:55;;;;;;;10.02;5.82;;;14.00;89.90;;;;;;5096192;28;20464;-83
2021/10/27 03:18:22;;;;;;;10.35;5.97;;;14.00;89.90;;;;;;5078259;28;20023;-80
2021/10/27 03:20:48;;;;;;;10.40;5.80;;;14.00;89.80;;;;;;5096859;28;20394;-81
2021/10/27 03:23:14;;;;;;;10.40;5.40;;;13.90;89.70;;;;;;5061839;28;20028;-79
2021/10/27 03:25:39;;;;;;;9.52;5.43;;;13.90;89.70;;;;;;5059563;28;20458;-80
2021/10/27 03:28:06;;;;;;;10.23;6.00;;;13.90;89.80;;;;;;5095002;28;20035;-80
2021/10/27 03:30:32;;;;;;;11.07;5.25;;;14.00;89.80;;;;;;5094832;28;20031;-78
2021/10/27 03:32:58;;;;;;;12.13;6.07;;;13.90;89.80;;;;;;5094854;28;20067;-78
2021/10/27 03:35:25;;;;;;;7.32;5.85;;;13.90;89.70;;;;;;5059538;28;20042;-80
2021/10/27 03:37:50;;;;;;;9.63;5.15;;;13.90;89.80;;;;;;5061264;28;20111;-80
2021/10/27 03:40:17;;;;;;;9.60;6.13;;;13.90;89.80;;;;;;5071466;28;20460;-79
2021/10/27 03:42:44;;;;;;;11.40;5.90;;;13.90;89.80;;;;;;5116316;28;20031;-81
2021/10/27 03:45:10;;;;;;;10.23;6.22;;;13.90;89.80;;;;;;5097365;28;20080;-78
2021/10/27 03:47:36;;;;;;;10.02;5.82;;;13.90;89.80;;;;;;5098334;28;20036;-79
2021/10/27 03:50:03;;;;;;;9.27;5.68;;;13.90;89.80;;;;;;5097179;28;20069;-83
2021/10/27 03:52:29;;;;;;;11.85;6.13;;;13.90;89.90;;;;;;5096895;28;20023;-79
2021/10/27 03:54:55;;;;;;;8.45;5.45;;;13.90;89.90;;;;;;5108323;28;20037;-80
2021/10/27 03:57:21;;;;;;;8.20;5.05;;;13.90;90.10;;;;;;5059999;28;20628;-80
2021/10/27 03:59:47;;;;;;;8.05;4.90;;;13.90;89.90;;;;;;5061163;28;20024;-80
2021/10/27 04:02:13;;;;;;;8.57;4.90;;;13.90;89.80;;;;;;5077058;28;20074;-79
2021/10/27 04:04:40;;;;;;;16.17;6.45;;;13.90;89.80;;;;;;5079070;28;20032;-80
2021/10/27 04:07:05;;;;;;;8.57;5.13;;;13.90;89.70;;;;;;5098316;28;20039;-83
2021/10/27 04:09:31;;;;;;;8.88;4.72;;;13.90;89.60;;;;;;5091258;28;20032;-79
2021/10/27 04:11:57;;;;;;;8.98;5.35;;;13.90;89.80;;;;;;5074960;28;20394;-80
2021/10/27 04:14:22;;;;;;;9.90;5.20;;;13.80;89.80;;;;;;5074528;28;20040;-80
2021/10/27 04:16:48;;;;;;;8.32;4.78;;;13.80;89.90;;;;;;5058326;28;20502;-80
2021/10/27 04:19:14;;;;;;;10.40;5.43;;;13.80;89.90;;;;;;5112458;28;20181;-80
2021/10/27 04:21:39;;;;;;;11.10;4.97;;;13.70;89.80;;;;;;5078142;28;20031;-79
2021/10/27 04:24:05;;;;;;;7.55;4.88;;;13.60;90.00;;;;;;5077150;28;20058;-81
2021/10/27 04:26:31;;;;;;;12.68;5.82;;;13.50;90.10;;;;;;5112283;28;20230;-81
2021/10/27 04:28:57;;;;;;;7.25;4.55;;;13.30;90.20;;;;;;5094993;28;20019;-80
2021/10/27 04:31:23;;;;;;;9.18;5.35;;;13.30;90.40;;;;;;5064649;28;20562;-80
2021/10/27 04:33:49;;;;;;;8.30;4.60;;;13.30;90.50;;;;;;5057684;28;20035;-80
2021/10/27 04:36:15;;;;;;;6.40;4.47;;;13.30;90.60;;;;;;5057163;28;20347;-81
2021/10/27 04:38:41;;;;;;;7.90;5.07;;;13.30;90.60;;;;;;5092273;28;20039;-80
2021/10/27 04:41:07;;;;;;;7.28;5.00;;;13.40;90.60;;;;;;5074661;28;20028;-80
2021/10/27 04:43:32;;;;;;;7.82;4.45;;;13.40;90.60;;;;;;5092033;28;20510;-80
2021/10/27 04:45:58;;;;;;;8.57;5.03;;;13.40;90.60;;;;;;5074425;28;20031;-80
2021/10/27 04:48:24;;;;;;;9.80;4.78;;;13.40;90.60;;;;;;5069384;28;20463;-80
2021/10/27 04:50:49;;;;;;;9.60;4.85;;;13.40;90.60;;;;;;5093810;28;20092;-80
2021/10/27 04:53:18;;;;;;;9.15;4.93;;;13.40;90.60;;;;;;5094296;28;20697;-82
2021/10/27 04:55:45;;;;;;;6.78;4.65;;;13.40;90.80;;;;;;5074146;28;20043;-81
2021/10/27 04:58:11;;;;;;;8.52;4.07;;;13.40;90.60;;;;;;5057439;28;20468;-81
2021/10/27 05:00:38;;;;;;;7.30;4.55;;;13.40;90.60;;;;;;5056567;28;20414;-80
2021/10/27 05:03:04;;;;;;;8.48;5.07;;;13.30;90.60;;;;;;5092353;28;20106;-81
2021/10/27 05:05:30;;;;;;;9.95;5.50;;;13.30;90.70;;;;;;5075690;28;20059;-81
2021/10/27 05:08:00;;;;;;;9.85;5.50;;;13.30;90.70;;;;;;5074427;28;20059;-80
2021/10/27 05:10:26;;;;;;;11.35;5.18;;;13.30;90.80;;;;;;5073945;28;20043;-81
2021/10/27 05:12:51;;;;;;;12.23;6.07;;;13.30;90.80;;;;;;5057764;28;20028;-81
2021/10/27 05:15:17;;;;;;;9.10;6.40;;;13.30;90.80;;;;;;5073478;28;20152;-82
2021/10/27 05:17:43;;;;;;;11.07;6.53;;;13.30;90.90;;;;;;5091705;28;20048;-80
2021/10/27 05:20:09;;;;;;;11.57;5.85;;;13.20;91.00;;;;;;5066732;28;20478;-80
2021/10/27 05:22:35;;;;;;;10.73;6.40;;;13.20;91.00;;;;;;5096349;28;20024;-81
2021/10/27 05:25:00;;;;;;;10.25;5.45;;;13.20;91.10;;;;;;5056903;28;20043;-82
2021/10/27 05:27:26;;;;;;;15.75;6.13;;;13.20;91.00;;;;;;5081404;28;20028;-81
2021/10/27 05:29:52;;;;;;;12.85;6.68;;;13.20;91.10;;;;;;5076198;28;20032;-81
2021/10/27 05:32:17;;;;;;;12.93;6.18;;;13.20;91.00;;;;;;5092605;28;20046;-81
2021/10/27 05:34:43;;;;;;;8.57;5.38;;;13.30;91.00;;;;;;5056157;28;20098;-81
2021/10/27 05:37:10;;;;;;;10.32;5.90;;;13.20;91.00;;;;;;5073417;28;20028;-80
2021/10/27 05:39:36;;;;;;;11.25;5.90;;;13.30;91.00;;;;;;5097761;28;20503;-81
2021/10/27 05:42:03;;;;;;;13.65;6.30;;;13.30;91.00;;;;;;5040155;28;20032;-81
2021/10/27 05:44:28;;;;;;;13.85;5.45;;;13.30;91.00;;;;;;5072601;28;20085;-81
2021/10/27 05:46:54;;;;;;;9.65;5.97;;;13.30;91.00;;;;;;5057883;28;20061;-80
2021/10/27 05:49:27;;;;;;;13.48;6.35;;;13.30;90.90;;;;;;5056479;28;20051;-80
2021/10/27 05:52:00;;;;;;;;;;;13.30;90.90;;;;;;5057912;28;20479;-80
2021/10/27 05:57:10;;;;;;;8.95;5.78;;;13.30;90.90;;;;;;5063112;28;20344;-80
2021/10/27 05:59:36;;;;;;;9.77;5.38;;;13.30;90.80;;;;;;5039176;28;20430;-80
2021/10/27 06:02:02;;;;;;;12.98;5.93;;;13.40;90.90;;;;;;5079113;28;20020;-80
2021/10/27 06:04:28;;;;;;;10.07;5.50;;;13.40;90.80;;;;;;5066181;28;20043;-82
2021/10/27 06:06:53;;;;;;;11.10;6.05;;;13.40;90.80;;;;;;5069022;28;20032;-81
2021/10/27 06:09:19;;;;;;;11.82;5.40;;;13.50;90.70;;;;;;5056654;28;20837;-82
2021/10/27 06:11:45;;;;;;;9.02;5.05;;;13.50;90.70;;;;;;5055652;28;20028;-82
2021/10/27 06:14:11;;;;;;;7.85;5.47;;;13.50;90.60;;;;;;5061576;28;20039;-81
2021/10/27 06:16:41;;;;;;;10.15;5.00;;;13.50;90.50;;;;;;5092579;28;20027;-80
2021/10/27 06:19:06;;;;;;;12.18;5.60;;;13.50;90.50;;;;;;5111597;28;20035;-80
2021/10/27 06:21:33;;;;;;;8.38;4.75;;;13.60;90.50;;;;;;5058711;28;20131;-81
2021/10/27 06:24:00;;;;;;;11.15;5.32;;;13.60;90.50;;;;;;5075940;28;20032;-81
2021/10/27 06:26:26;;;;;;;8.00;5.80;;;13.60;90.40;;;;;;5079087;28;20070;-80
2021/10/27 06:29:06;;;;;;;11.82;5.93;;;13.60;90.30;;;;;;5091081;28;20162;-81
2021/10/27 06:31:43;;;;;;;10.35;5.60;;;13.60;90.30;;;;;;5090102;28;20531;-83
2021/10/27 06:34:34;;;;;;;10.07;6.00;;;13.60;90.20;;;;;;5102148;28;20032;-80
2021/10/27 06:47:56;;;;;;;17.17;8.52;;;13.60;90.20;;;;;;5082729;28;20055;-81
2021/10/27 06:50:22;;;;;;;19.05;8.05;;;13.70;90.10;;;;;;5075313;28;20032;-81
2021/10/27 06:52:48;;;;;;;13.45;7.45;;;13.60;90.10;;;;;;5074546;28;20020;-81
2021/10/27 06:55:13;;;;;;;17.38;7.50;;;13.60;90.10;;;;;;5097725;28;20036;-80
2021/10/27 06:57:39;;;;;;;12.48;8.10;;;13.70;90.10;;;;;;5058798;28;20036;-81
2021/10/27 07:00:36;;;;;;;11.90;7.20;;;13.70;90.10;;;;;;5059810;28;20460;-80
2021/10/27 07:16:09;;;;;;;15.02;7.15;;;13.80;90.00;;;;;;5086324;28;20082;-81
2021/10/27 07:18:35;;;;;;;14.20;7.30;;;13.70;89.70;;;;;;5094010;28;20060;-80
2021/10/27 07:21:02;;;;;;;13.65;6.60;;;13.80;89.70;;;;;;5076173;28;20081;-81
2021/10/27 07:23:27;;;;;;;13.02;6.30;;;13.80;89.70;;;;;;5096907;28;20096;-81
2021/10/27 07:25:57;;;;;;;10.07;6.50;;;13.80;89.40;;;;;;5079178;28;20059;-81
2021/10/27 07:28:28;;;;;;;13.82;6.65;;;13.80;89.40;;;;;;5080696;28;20049;-81
2021/10/27 07:30:57;;;;;;;9.60;6.65;;;13.80;89.50;;;;;;5113878;28;20028;-80
2021/10/27 07:33:23;;;;;;;11.82;6.25;;;13.80;89.10;;;;;;5090263;28;20548;-81
2021/10/27 07:41:00;;;;;;;11.20;5.70;;;14.00;88.70;;;;;;5094852;28;20039;-80
2021/10/27 07:43:31;;;;;;;15.15;6.20;;;14.00;88.10;;;;;;5058976;28;20051;-79
2021/10/27 07:45:57;;;;;;;7.95;5.70;;;14.00;88.10;;;;;;5076145;28;20028;-79
2021/10/27 07:48:23;;;;;;;10.10;6.50;;;14.10;88.30;;;;;;5075789;28;20035;-80
2021/10/27 07:50:50;;;;;;;10.77;6.03;;;14.10;88.10;;;;;;5074985;28;20029;-80
2021/10/27 07:53:17;;;;;;;14.25;5.63;;;14.20;88.30;;;;;;5074688;28;20032;-79
2021/10/27 07:55:49;;;;;;;9.15;5.63;;;14.20;87.60;;;;;;5108979;28;20158;-80
2021/10/27 07:58:22;;;;;;;10.55;5.75;;;14.30;87.60;;;;;;5080211;28;20076;-79
2021/10/27 08:00:51;;;;;;;10.45;5.45;;;14.30;87.30;;;;;;5096002;28;20420;-81
2021/10/27 08:03:18;;;;;;;8.77;5.35;;;14.40;87.00;;;;;;5096731;28;20039;-81
2021/10/27 08:05:44;;;;;;;10.70;5.07;;;14.40;86.70;;;;;;5097097;28;20122;-79
2021/10/27 08:08:12;;;;;;;10.73;4.85;;;14.40;86.40;;;;;;5113970;28;20027;-80
2021/10/27 08:10:38;;;;;;;9.65;4.65;;;14.40;86.10;;;;;;5096335;28;20464;-80
2021/10/27 08:13:04;;;;;;;13.65;5.30;;;14.40;85.90;;;;;;5093930;28;20059;-80
2021/10/27 08:15:32;;;;;;;8.57;5.40;;;14.40;85.60;;;;;;5078700;28;20036;-80
2021/10/27 08:17:58;;;;;;;10.80;4.75;;;14.40;86.00;;;;;;5112727;28;20088;-81
2021/10/27 08:20:26;;;;;;;11.52;4.30;;;14.50;85.70;;;;;;5095153;28;20084;-80
2021/10/27 08:23:02;;;;;;;8.50;4.80;;;14.50;85.30;;;;;;5077797;28;20066;-82
2021/10/27 08:28:31;;;;;;;8.05;4.03;;;14.50;85.60;;;;;;5069016;28;20094;-80
2021/10/27 08:31:43;;;;;;;7.70;3.85;;;15.20;85.10;;;;;;5075138;28;20395;-80
2021/10/27 08:36:24;;;;;;;5.60;3.10;;;17.20;81.30;;;;;;5092050;28;20519;-80
2021/10/27 08:38:50;;;;;;;6.72;3.05;;;18.10;77.30;;;;;;5075026;28;20119;-80
2021/10/27 08:41:16;;;;;;;7.80;3.20;;;18.50;75.10;;;;;;5090690;28;20051;-81
2021/10/27 08:43:42;;;;;;;6.03;2.78;;;18.90;73.70;;;;;;5093247;28;20024;-80
2021/10/27 08:46:11;;;;;;;7.40;2.78;;;19.00;72.90;;;;;;5056528;28;20051;-81
2021/10/27 08:48:38;;;;;;;6.20;2.88;;;19.40;72.10;;;;;;5091293;28;20467;-81
2021/10/27 08:51:06;;;;;;;4.53;2.47;;;19.70;71.60;;;;;;5090436;28;20032;-80
2021/10/27 08:53:34;;;;;;;7.50;2.38;;;20.20;70.60;;;;;;5090989;28;20111;-81
2021/10/27 08:56:03;;;;;;;5.40;2.33;;;20.50;68.80;;;;;;5073969;28;20055;-80
2021/10/27 08:58:34;;;;;;;5.38;2.10;;;20.70;67.90;;;;;;5092301;28;20029;-80
2021/10/27 09:06:08;;;;;;;7.90;2.55;;;21.80;65.10;;;;;;5077414;28;20048;-81
2021/10/27 09:35:00;;;;;;;4.93;1.70;;;24.40;56.20;;;;;;5016949;28;20045;-81
2021/10/27 09:38:01;;;;;;;5.05;1.83;;;24.40;55.70;;;;;;5050585;28;20119;-81
2021/10/27 09:42:49;;;;;;;4.90;2.00;;;24.10;57.10;;;;;;5071330;28;20059;-81
2021/10/27 10:05:04;;;;;;;4.43;1.75;;;24.30;55.90;;;;;;5051077;28;20080;-82
2021/10/27 10:07:32;;;;;;;4.57;1.33;;;24.60;54.30;;;;;;5048790;28;20033;-82
2021/10/27 10:09:58;;;;;;;4.78;2.03;;;24.60;54.90;;;;;;5051270;28;20858;-82
2021/10/27 10:12:24;;;;;;;3.92;1.40;;;24.30;53.90;;;;;;5068571;28;20036;-81
2021/10/27 10:14:51;;;;;;;4.68;1.67;;;24.30;55.30;;;;;;5070179;28;20037;-81
2021/10/27 10:17:17;;;;;;;3.22;1.50;;;24.40;55.10;;;;;;5062183;28;20053;-81
2021/10/27 10:19:43;;;;;;;4.07;2.00;;;24.20;54.30;;;;;;5063364;28;20063;-82
2021/10/27 10:22:32;;;;;;;5.88;1.83;;;24.30;54.20;;;;;;5050612;28;20025;-84
2021/10/27 10:25:22;;;;;;;5.32;1.40;;;24.00;54.90;;;;;;5071246;28;20033;-81
2021/10/27 10:27:54;;;;;;;4.13;1.25;;;24.10;55.70;;;;;;5059003;28;20117;-81
2021/10/27 10:30:38;;;;;;;5.80;1.80;;;24.30;55.50;;;;;;5076431;28;20093;-82
2021/10/27 10:33:10;;;;;;;2.38;1.10;;;24.70;54.20;;;;;;5073896;28;20042;-79
2021/10/27 10:36:08;;;;;;;3.90;1.55;;;24.60;54.50;;;;;;5090115;28;20028;-80
2021/10/27 10:56:11;;;;;;;3.72;0.70;;;24.60;54.30;;;;;;5099936;28;20387;-80
2021/10/27 11:37:54;;;;;;;2.03;0.80;;;24.20;55.00;;;;;;5105361;28;20115;-81
2021/10/27 11:40:33;;;;;;;3.15;0.80;;;24.30;54.50;;;;;;5076063;28;20032;-81
2021/10/27 11:43:17;;;;;;;3.55;0.70;;;24.30;54.90;;;;;;5094029;28;20031;-81
2021/10/27 11:48:22;;;;;;;2.95;0.52;;;24.40;54.40;;;;;;5114510;28;20050;-80
2021/10/27 11:50:48;;;;;;;5.30;0.88;;;24.30;54.80;;;;;;5096449;28;20024;-82
2021/10/27 11:53:33;;;;;;;4.72;0.75;;;24.20;54.70;;;;;;5092304;28;20387;-83
2021/10/27 11:56:12;;;;;;;4.38;0.65;;;24.20;54.70;;;;;;5077174;28;20063;-82
2021/10/27 11:58:41;;;;;;;2.85;0.80;;;24.00;54.90;;;;;;5074770;28;20020;-82
2021/10/27 12:01:11;;;;;;;2.40;0.63;;;23.90;54.60;;;;;;5075267;28;20081;-82
2021/10/27 12:03:39;;;;;;;2.88;0.65;;;23.50;55.60;;;;;;5065936;28;20052;-83
2021/10/27 12:11:31;;;;;;;3.50;0.90;;;22.70;57.30;;;;;;5095494;28;20482;-81
2021/10/27 12:14:24;;;;;;;3.70;0.60;;;22.40;58.50;;;;;;5055313;28;20031;-82
2021/10/27 12:19:30;;;;;;;5.00;1.27;;;22.00;59.40;;;;;;5095700;28;20474;-81
2021/10/27 12:22:08;;;;;;;4.55;0.60;;;21.70;59.70;;;;;;5084129;28;20019;-82
2021/10/27 12:24:40;;;;;;;3.33;0.70;;;21.50;60.50;;;;;;5097955;28;20051;-81
2021/10/27 12:30:00;;;;;;;2.55;0.60;;;21.50;60.90;;;;;;5091692;28;20036;-81
2021/10/27 12:32:27;;;;;;;3.67;0.80;;;21.50;60.90;;;;;;5073267;28;20383;-81
2021/10/27 12:34:58;;;;;;;3.05;0.60;;;21.30;60.90;;;;;;5092356;28;20081;-81
2021/10/27 12:40:13;;;;;;;3.70;0.93;;;21.10;61.60;;;;;;5093525;28;20028;-81
2021/10/27 12:42:39;;;;;;;2.97;0.80;;;21.00;61.50;;;;;;5090931;28;20020;-81
2021/10/27 12:45:06;;;;;;;2.28;0.60;;;21.00;61.70;;;;;;5074343;28;20374;-82
2021/10/27 12:47:41;;;;;;;1.85;0.70;;;20.90;61.70;;;;;;5071432;28;20491;-81
2021/10/27 12:50:17;;;;;;;3.42;1.00;;;20.80;61.90;;;;;;5071295;28;20058;-80
2021/10/27 12:52:55;;;;;;;2.03;0.50;;;20.80;62.30;;;;;;5071739;28;20021;-81
2021/10/27 12:55:30;;;;;;;3.88;0.73;;;20.70;62.40;;;;;;5072589;28;20052;-82
2021/10/27 12:57:58;;;;;;;3.88;0.75;;;20.60;62.50;;;;;;5071486;28;20021;-82
2021/10/27 13:03:42;;;;;;;4.47;0.70;;;20.50;63.10;;;;;;5072418;28;20040;-81
2021/10/27 13:32:05;;;;;;;5.28;1.10;;;20.20;63.50;;;;;;5088980;28;20109;-82
2021/10/27 13:34:31;;;;;;;7.00;0.80;;;20.10;64.00;;;;;;5088095;28;20029;-79
2021/10/27 13:36:56;;;;;;;3.97;0.95;;;20.00;63.90;;;;;;5059302;28;20055;-80
2021/10/27 13:39:23;;;;;;;2.55;0.80;;;19.80;64.30;;;;;;5054033;28;20377;-80
2021/10/27 13:41:55;;;;;;;2.33;0.70;;;19.70;64.50;;;;;;5053259;28;20541;-79
2021/10/27 13:44:24;;;;;;;4.10;0.80;;;19.50;64.60;;;;;;5072062;28;20039;-80
2021/10/27 13:47:10;;;;;;;3.45;0.98;;;19.40;65.00;;;;;;5069602;28;20025;-79
2021/10/27 14:11:19;;;;;;;3.55;0.80;;;19.20;65.60;;;;;;5006932;28;20038;-70
2021/10/27 14:17:36;;;;;;;4.07;1.10;;;19.00;66.10;;;;;;5088105;28;19962;-70
2021/10/27 15:40:49;;;;;;;7.35;2.00;;;16.80;72.80;;;;;;5103150;28;20092;-81
2021/10/27 15:51:18;;;;;;;4.97;2.78;;;16.50;73.90;;;;;;5100326;28;20059;-84
2021/10/27 15:53:44;;;;;;;6.53;3.08;;;16.50;74.20;;;;;;5075568;28;20031;-83
2021/10/27 15:56:10;;;;;;;6.43;3.40;;;16.40;74.50;;;;;;5093014;28;20028;-83
2021/10/27 15:58:35;;;;;;;5.45;3.05;;;16.30;74.70;;;;;;5075529;28;20116;-82
2021/10/27 16:01:01;;;;;;;4.82;2.78;;;16.20;75.00;;;;;;5090429;28;20394;-82
2021/10/27 16:03:28;;;;;;;7.40;4.55;;;16.20;75.30;;;;;;5076109;28;20020;-83
2021/10/27 16:05:55;;;;;;;9.00;5.53;;;16.10;75.70;;;;;;5069794;28;20047;-83
2021/10/27 16:08:23;;;;;;;7.18;3.38;;;16.00;76.10;;;;;;5081197;28;20455;-82
2021/10/27 16:10:51;;;;;;;10.30;6.00;;;15.90;76.30;;;;;;5083812;28;20020;-83
2021/10/27 16:13:17;;;;;;;9.90;6.93;;;15.70;76.60;;;;;;5097024;28;20468;-83
2021/10/27 16:18:38;;;;;;;8.13;4.60;;;15.60;77.30;;;;;;5079628;28;20040;-83
2021/10/27 16:21:04;;;;;;;8.10;4.50;;;15.50;77.50;;;;;;5073308;28;20082;-83
2021/10/27 16:23:30;;;;;;;7.30;4.03;;;15.50;77.80;;;;;;5077207;28;20023;-83
2021/10/27 16:25:56;;;;;;;11.98;8.50;;;15.40;77.90;;;;;;5075711;28;20054;-82
2021/10/27 16:28:23;;;;;;;11.88;7.43;;;15.30;78.40;;;;;;5095904;28;20077;-83
2021/10/27 16:30:50;;;;;;;13.05;8.20;;;15.20;78.70;;;;;;5098786;28;20049;-83
2021/10/27 16:33:21;;;;;;;11.65;6.40;;;15.20;79.00;;;;;;5100920;28;20103;-83
2021/10/27 16:35:47;;;;;;;13.23;8.15;;;15.10;79.20;;;;;;5085226;28;20034;-83
2021/10/27 16:38:13;;;;;;;11.13;8.27;;;15.00;79.50;;;;;;5095551;28;20028;-78
2021/10/27 16:40:39;;;;;;;11.50;7.38;;;15.00;79.80;;;;;;5096631;28;20480;-82
2021/10/27 16:43:05;;;;;;;10.93;8.23;;;14.90;80.10;;;;;;5079608;28;20038;-81
2021/10/27 16:45:32;;;;;;;5.60;2.97;;;14.80;80.30;;;;;;5107827;28;20091;-82
2021/10/27 16:47:58;;;;;;;5.38;2.95;;;14.80;80.50;;;;;;5099056;28;20027;-83
2021/10/27 16:50:24;;;;;;;13.13;7.60;;;14.70;80.80;;;;;;5078066;28;20029;-83
2021/10/27 16:52:50;;;;;;;5.97;4.07;;;14.60;81.10;;;;;;5093233;28;20032;-83
2021/10/27 16:55:20;;;;;;;9.15;4.93;;;14.60;81.30;;;;;;5093808;28;20585;-81
2021/10/27 16:57:48;;;;;;;9.63;6.13;;;14.50;81.50;;;;;;5075001;28;20059;-82
2021/10/27 17:00:15;;;;;;;8.25;4.53;;;14.40;81.80;;;;;;5065325;28;20499;-82
2021/10/27 17:02:41;;;;;;;8.38;5.32;;;14.40;82.00;;;;;;5083439;28;20119;-83
2021/10/27 17:05:07;;;;;;;9.45;4.63;;;14.40;82.10;;;;;;5084870;28;20047;-82
2021/10/27 17:07:34;;;;;;;8.27;5.38;;;14.30;82.30;;;;;;5049159;28;20073;-82
2021/10/27 17:10:02;;;;;;;8.88;5.50;;;14.30;82.50;;;;;;5080743;28;20034;-83
2021/10/27 17:12:28;;;;;;;8.73;6.00;;;14.20;82.50;;;;;;5075487;28;20093;-81
2021/10/27 17:14:53;;;;;;;10.18;7.35;;;14.20;82.70;;;;;;5074321;28;20036;-82
2021/10/27 17:17:19;;;;;;;11.60;6.90;;;14.20;82.80;;;;;;5072442;28;20032;-79
2021/10/27 17:19:45;;;;;;;10.70;6.57;;;14.20;83.00;;;;;;5073302;28;20460;-82
2021/10/27 17:22:12;;;;;;;6.85;5.03;;;14.20;82.90;;;;;;5093202;28;20024;-83
2021/10/27 17:24:39;;;;;;;7.35;4.88;;;14.10;82.90;;;;;;5091023;28;20079;-84
2021/10/27 17:27:04;;;;;;;17.20;11.75;;;14.10;83.00;;;;;;5073578;28;20500;-84
2021/10/27 17:29:31;;;;;;;10.77;6.53;;;14.10;83.30;;;;;;5058355;28;20198;-85
2021/10/27 17:31:57;;;;;;;10.77;6.05;;;14.00;83.40;;;;;;5076878;28;20073;-84
2021/10/27 17:34:24;;;;;;;10.30;6.47;;;14.00;83.40;;;;;;5097090;28;20032;-81
2021/10/27 17:36:50;;;;;;;9.50;7.05;;;14.00;83.50;;;;;;5116841;28;20035;-81
2021/10/27 17:39:16;;;;;;;9.32;4.90;;;13.90;83.70;;;;;;5080141;28;20040;-84
2021/10/27 17:41:46;;;;;;;9.43;5.72;;;13.90;83.90;;;;;;5079567;28;20028;-85
2021/10/27 17:44:13;;;;;;;7.32;4.53;;;13.80;83.90;;;;;;5098089;28;20035;-84
2021/10/27 17:49:19;;;;;;;10.55;6.43;;;13.70;84.20;;;;;;5114202;28;20063;-84
2021/10/27 17:51:57;;;;;;;10.75;7.13;;;13.70;84.60;;;;;;5114564;28;20031;-84
2021/10/27 17:57:40;;;;;;;16.02;9.70;;;13.60;85.10;;;;;;5116242;28;20049;-84
2021/10/27 18:00:07;;;;;;;7.43;4.95;;;13.50;85.50;;;;;;5087086;28;20038;-83
2021/10/27 18:02:35;;;;;;;6.28;4.97;;;13.50;85.60;;;;;;5117415;28;20035;-85